Bei Facebook empfehlenBei Twitter postenGoogle plusPinterest

Das Wetter im Erzgebirge am 03.12.2015

Wetter und Klima am 03.12.2015 Holzhau im Erzgebirge (630m ü.NN)
Letzte gemessene Temperatur und Uhrzeit der Messung23:45:00 Uhr2.30 °C
Temperatur (Maximum / Höchstwert) und Uhrzeit der Messung13:30:00 Uhr8.20 °C
Temperatur (Minimum / Tiefstwert) und Uhrzeit der Messung09:00:00-0.10 °C
Errechneter Absolutwert der Temperaturschwankungen zwischen Tmin und Tmax des Tages8.30 K
Errechnete Tagesmitteltemperatur2.98333 °C
Gesamt - Niederschlag des Tages (in flüssiger Form)0.00 Liter / m²
Luftdruck (Maximum / Höchstwert) und Zeitpunkt der Messung10:30:00 Uhr1026.10 hPa
Luftdruck (Minimum / Tiefstwert) und Zeitpunkt der Messung23:45:00 Uhr1021.90 hPa
Errechneter Absolutwert der Luftdruckschwankungen des Tages4.20 hPa
Höchste gemessene Windgeschwindigkeit und Uhrzeit der Messung13:30:00 Uhr9.36 km/h
Errechnete Windhäufigkeit in Relation zu den Messwerten des Tages13.54167 %
Niedrigste Windkühle (Windchill) und Zeitpunkt der Messung09:00:00 Uhr-0.10 °C
Taupunkt (Maximum / Höchstwert) und Uhrzeit der Messung13:00:00 Uhr7.30 °C
Taupunkt (Minimum / Tiefstwert) und Uhrzeit der Messung18:00:00-1.30 °C
Anzahl der automatisch eingelesenen Messwerte 96

Detaillierte Wetter- und Klima- Messwerte für den 03.12.2015 in Holzhau im Erzgebirge (630m ü.NN)
ZeitTemperaturLuftdruckRel. LuftfeuchteWindWindrichtungWindchillTaupunktNiederschlag l/m²
23:45:002.30 °C1021.90 hPa92.00 %4.32 km/hSO2.30 °C1.10 °C 
23:30:002.40 °C1021.90 hPa92.00 %2.52 km/hSO2.40 °C1.20 °C 
23:15:002.40 °C1022.20 hPa92.00 %1.20 °C 
23:00:002.50 °C1022.40 hPa92.00 %2.52 km/hONO2.50 °C1.30 °C 
22:45:002.40 °C1022.30 hPa92.00 %1.20 °C 
22:30:002.50 °C1022.20 hPa92.00 %7.92 km/hN0.20 °C1.30 °C 
22:15:002.60 °C1022.40 hPa93.00 %1.60 °C 
22:00:002.90 °C1022.30 hPa93.00 %1.90 °C 
21:45:002.90 °C1022.00 hPa93.00 %8.64 km/hSSO0.50 °C1.90 °C 
21:30:002.90 °C1022.10 hPa93.00 %4.68 km/hSO2.90 °C1.90 °C 
21:15:002.50 °C1022.40 hPa93.00 %1.50 °C 
21:00:002.40 °C1022.50 hPa93.00 %1.40 °C 
20:45:002.10 °C1023.00 hPa92.00 %0.90 °C 
20:30:002.10 °C1023.50 hPa92.00 %0.90 °C 
20:15:002.10 °C1023.70 hPa92.00 %4.32 km/hSO2.10 °C0.90 °C 
20:00:001.90 °C1023.80 hPa92.00 %0.70 °C 
19:45:001.90 °C1024.10 hPa92.00 %0.70 °C 
19:30:001.90 °C1023.90 hPa92.00 %0.70 °C 
19:15:001.60 °C1023.80 hPa92.00 %0.40 °C 
19:00:001.30 °C1023.90 hPa91.00 %0.00 °C 
18:45:000.80 °C1024.10 hPa91.00 %-0.50 °C 
18:30:000.50 °C1024.20 hPa91.00 %-0.80 °C 
18:15:000.10 °C1024.20 hPa91.00 %-1.20 °C 
18:00:000.10 °C1024.30 hPa90.00 %-1.30 °C 
17:45:000.20 °C1024.40 hPa90.00 %-1.20 °C 
17:30:000.40 °C1024.10 hPa89.00 %-1.20 °C 
17:15:000.70 °C1024.40 hPa89.00 %-0.90 °C 
17:00:000.80 °C1024.70 hPa88.00 %-1.00 °C 
16:45:001.30 °C1024.60 hPa88.00 %-0.50 °C 
16:30:001.80 °C1024.30 hPa88.00 %0.00 °C 
16:15:002.10 °C1024.70 hPa87.00 %0.20 °C 
16:00:002.70 °C1024.70 hPa86.00 %0.60 °C 
15:45:003.60 °C1025.00 hPa85.00 %1.30 °C 
15:30:004.80 °C1025.10 hPa85.00 %2.50 °C 
15:15:005.90 °C1025.00 hPa85.00 %3.60 °C 
15:00:006.80 °C1024.90 hPa86.00 %2.16 km/hSSW6.80 °C4.60 °C 
14:45:007.20 °C1025.00 hPa87.00 %5.20 °C 
14:30:007.50 °C1024.80 hPa88.00 %5.60 °C 
14:15:007.60 °C1025.00 hPa88.00 %5.70 °C 
14:00:008.10 °C1025.20 hPa90.00 %6.60 °C 
13:45:008.10 °C1025.60 hPa91.00 %6.70 °C 
13:30:008.20 °C1025.60 hPa93.00 %9.36 km/hSW6.60 °C7.10 °C 
13:15:008.10 °C1025.50 hPa93.00 %5.76 km/hWNW7.40 °C7.00 °C 
13:00:008.10 °C1025.50 hPa95.00 %7.30 °C 
12:45:007.90 °C1025.00 hPa95.00 %2.16 km/hSO7.90 °C7.10 °C 
12:30:007.90 °C1025.30 hPa96.00 %7.30 °C 
12:15:007.40 °C1025.30 hPa96.00 %6.80 °C 
12:00:006.70 °C1025.50 hPa96.00 %6.10 °C 
11:45:006.00 °C1025.50 hPa96.00 %5.40 °C 
11:30:005.80 °C1025.50 hPa96.00 %5.20 °C 
11:15:005.40 °C1025.80 hPa96.00 %4.80 °C 
11:00:004.60 °C1025.90 hPa96.00 %4.00 °C 
10:45:003.90 °C1026.00 hPa96.00 %1.80 km/hSO3.90 °C3.30 °C 
10:30:003.30 °C1026.10 hPa96.00 %2.70 °C 
10:15:002.60 °C1026.00 hPa96.00 %2.00 °C 
10:00:001.80 °C1025.80 hPa95.00 %1.10 °C 
09:45:000.80 °C1025.90 hPa95.00 %0.10 °C 
09:30:000.10 °C1026.00 hPa95.00 %-0.60 °C 
09:15:000.10 °C1025.80 hPa95.00 %-0.60 °C 
09:00:00-0.10 °C1025.80 hPa95.00 %-0.90 °C 
08:45:00-0.10 °C1025.80 hPa95.00 %-0.90 °C 
08:30:000.10 °C1025.70 hPa95.00 %-0.60 °C 
08:15:000.30 °C1025.50 hPa95.00 %-0.40 °C 
08:00:000.60 °C1025.50 hPa95.00 %-0.10 °C 
07:45:000.80 °C1025.50 hPa95.00 %0.10 °C 
07:30:000.80 °C1025.50 hPa95.00 %1.44 km/hSO0.80 °C0.10 °C 
07:15:000.90 °C1025.10 hPa95.00 %0.20 °C 
07:00:001.10 °C1024.90 hPa95.00 %0.40 °C 
06:45:001.30 °C1024.70 hPa95.00 %0.60 °C 
06:30:001.50 °C1024.80 hPa95.00 %0.80 °C 
06:15:001.60 °C1024.80 hPa95.00 %0.90 °C 
06:00:001.80 °C1024.50 hPa95.00 %1.10 °C 
05:45:001.90 °C1024.50 hPa95.00 %1.20 °C 
05:30:002.10 °C1024.30 hPa95.00 %1.40 °C 
05:15:002.10 °C1024.40 hPa95.00 %1.40 °C 
05:00:002.10 °C1024.20 hPa95.00 %1.40 °C 
04:45:002.20 °C1024.20 hPa95.00 %1.50 °C 
04:30:002.40 °C1024.00 hPa95.00 %1.70 °C 
04:15:002.60 °C1024.10 hPa95.00 %1.90 °C 
04:00:002.80 °C1024.20 hPa95.00 %2.10 °C 
03:45:002.90 °C1024.10 hPa95.00 %2.20 °C 
03:30:002.90 °C1024.10 hPa95.00 %2.20 °C 
03:15:002.90 °C1024.00 hPa95.00 %2.20 °C 
03:00:002.90 °C1024.00 hPa95.00 %2.20 °C 
02:45:002.90 °C1023.90 hPa95.00 %2.20 °C 
02:30:003.00 °C1023.80 hPa95.00 %2.30 °C 
02:15:003.10 °C1023.90 hPa95.00 %2.40 °C 
02:00:003.30 °C1023.90 hPa95.00 %2.60 °C 
01:45:003.20 °C1024.00 hPa95.00 %2.50 °C 
01:30:003.20 °C1023.90 hPa95.00 %2.50 °C 
01:15:003.30 °C1023.80 hPa95.00 %2.60 °C 
01:00:003.40 °C1023.70 hPa95.00 %2.70 °C 
00:45:003.80 °C1023.60 hPa95.00 %3.10 °C 
00:30:003.80 °C1023.80 hPa95.00 %3.10 °C 
00:15:003.80 °C1023.60 hPa95.00 %3.10 °C 
00:00:003.80 °C1023.80 hPa95.00 %3.10 °C 

Permanenter Link zu dieser Seite: Wetter im Erzgebirge am 03.12.2015
Performance-Info: Die Erstellung der Seite / Statistik(en) / Tabelle(n) erforderte 5 Datenbankserver-Abfrage(n) und dauerte 101 Millisekunden. (Dieser Messwert ist von der Gesamt-Auslastung des Servers abhängig.)
Erzgebirge - Wetter | Erzgebirge - Wetter (Mobilgeräte) | Komplette Klimadatenbank